sensor_id;sensor_type;location;lat;lon;timestamp;pressure;altitude;pressure_sealevel;temperature;humidity
2675;BME280;1347;42.122;24.746;2023-07-31T00:01:19;98897.19;;;25.48;52.00
2675;BME280;1347;42.122;24.746;2023-07-31T00:03:46;98891.03;;;25.44;51.66
2675;BME280;1347;42.122;24.746;2023-07-31T00:06:14;98897.91;;;25.43;51.77
2675;BME280;1347;42.122;24.746;2023-07-31T00:08:41;98905.06;;;25.29;52.26
2675;BME280;1347;42.122;24.746;2023-07-31T00:11:08;98900.97;;;25.16;52.96
2675;BME280;1347;42.122;24.746;2023-07-31T00:13:35;98895.47;;;25.21;52.64
2675;BME280;1347;42.122;24.746;2023-07-31T00:16:02;98906.31;;;25.14;52.88
2675;BME280;1347;42.122;24.746;2023-07-31T00:18:29;98906.59;;;25.01;52.96
2675;BME280;1347;42.122;24.746;2023-07-31T00:20:55;98906.06;;;24.88;53.79
2675;BME280;1347;42.122;24.746;2023-07-31T00:23:24;98907.63;;;24.89;53.50
2675;BME280;1347;42.122;24.746;2023-07-31T00:25:51;98917.00;;;24.86;53.62
2675;BME280;1347;42.122;24.746;2023-07-31T00:28:17;98922.03;;;24.82;53.93
2675;BME280;1347;42.122;24.746;2023-07-31T00:30:44;98919.09;;;24.76;54.28
2675;BME280;1347;42.122;24.746;2023-07-31T00:33:12;98918.53;;;24.72;54.12
2675;BME280;1347;42.122;24.746;2023-07-31T00:35:38;98915.31;;;24.65;55.07
2675;BME280;1347;42.122;24.746;2023-07-31T00:38:05;98913.66;;;24.58;54.92
2675;BME280;1347;42.122;24.746;2023-07-31T00:40:36;98913.56;;;24.52;55.20
2675;BME280;1347;42.122;24.746;2023-07-31T00:43:03;98918.78;;;24.60;54.54
2675;BME280;1347;42.122;24.746;2023-07-31T00:45:30;98910.84;;;24.58;55.27
2675;BME280;1347;42.122;24.746;2023-07-31T00:47:57;98917.31;;;24.49;55.28
2675;BME280;1347;42.122;24.746;2023-07-31T00:50:25;98917.00;;;24.47;55.80
2675;BME280;1347;42.122;24.746;2023-07-31T00:52:52;98917.78;;;24.48;55.50
2675;BME280;1347;42.122;24.746;2023-07-31T00:55:19;98930.25;;;24.47;55.59
2675;BME280;1347;42.122;24.746;2023-07-31T00:57:49;98918.56;;;24.48;55.61
2675;BME280;1347;42.122;24.746;2023-07-31T01:00:17;98916.84;;;24.51;55.75
2675;BME280;1347;42.122;24.746;2023-07-31T01:02:44;98920.09;;;24.49;55.59
2675;BME280;1347;42.122;24.746;2023-07-31T01:05:11;98925.00;;;24.40;56.09
2675;BME280;1347;42.122;24.746;2023-07-31T01:07:44;98927.19;;;24.36;56.35
2675;BME280;1347;42.122;24.746;2023-07-31T01:10:17;98934.84;;;24.35;56.36
2675;BME280;1347;42.122;24.746;2023-07-31T01:12:45;98944.97;;;24.33;56.75
2675;BME280;1347;42.122;24.746;2023-07-31T01:15:14;98938.31;;;24.30;57.13
2675;BME280;1347;42.122;24.746;2023-07-31T01:17:43;98930.84;;;24.27;57.11
2675;BME280;1347;42.122;24.746;2023-07-31T01:20:12;98930.56;;;24.16;57.48
2675;BME280;1347;42.122;24.746;2023-07-31T01:22:54;98927.06;;;24.06;57.80
2675;BME280;1347;42.122;24.746;2023-07-31T01:28:20;98924.72;;;24.05;58.70
2675;BME280;1347;42.122;24.746;2023-07-31T01:30:50;98921.81;;;23.99;58.83
2675;BME280;1347;42.122;24.746;2023-07-31T01:33:17;98918.81;;;24.03;58.35
2675;BME280;1347;42.122;24.746;2023-07-31T01:35:46;98932.00;;;24.11;58.08
2675;BME280;1347;42.122;24.746;2023-07-31T01:38:15;98930.09;;;24.17;57.18
2675;BME280;1347;42.122;24.746;2023-07-31T01:40:42;98927.44;;;24.23;56.68
2675;BME280;1347;42.122;24.746;2023-07-31T01:43:09;98928.81;;;24.28;56.36
2675;BME280;1347;42.122;24.746;2023-07-31T01:45:37;98931.44;;;24.31;56.07
2675;BME280;1347;42.122;24.746;2023-07-31T01:48:04;98928.94;;;24.33;55.68
2675;BME280;1347;42.122;24.746;2023-07-31T01:50:31;98916.47;;;24.34;55.81
2675;BME280;1347;42.122;24.746;2023-07-31T01:52:58;98919.63;;;24.27;56.00
2675;BME280;1347;42.122;24.746;2023-07-31T01:55:25;98919.81;;;24.24;55.86
2675;BME280;1347;42.122;24.746;2023-07-31T01:57:51;98913.94;;;24.22;55.96
2675;BME280;1347;42.122;24.746;2023-07-31T02:00:19;98913.13;;;24.21;55.70
2675;BME280;1347;42.122;24.746;2023-07-31T02:02:46;98917.81;;;24.15;55.75
2675;BME280;1347;42.122;24.746;2023-07-31T02:05:13;98920.16;;;24.16;55.86
2675;BME280;1347;42.122;24.746;2023-07-31T02:07:40;98923.72;;;24.17;55.76
2675;BME280;1347;42.122;24.746;2023-07-31T02:10:07;98919.72;;;24.09;55.80
2675;BME280;1347;42.122;24.746;2023-07-31T02:12:34;98919.72;;;24.09;56.04
2675;BME280;1347;42.122;24.746;2023-07-31T02:15:01;98925.75;;;24.16;56.14
2675;BME280;1347;42.122;24.746;2023-07-31T02:17:28;98923.25;;;24.18;55.30
2675;BME280;1347;42.122;24.746;2023-07-31T02:19:56;98916.72;;;24.22;55.47
2675;BME280;1347;42.122;24.746;2023-07-31T02:22:23;98908.25;;;24.31;55.33
2675;BME280;1347;42.122;24.746;2023-07-31T02:24:50;98918.03;;;24.35;56.00
2675;BME280;1347;42.122;24.746;2023-07-31T02:27:17;98909.91;;;24.37;56.13
2675;BME280;1347;42.122;24.746;2023-07-31T02:29:44;98911.78;;;24.40;56.87
2675;BME280;1347;42.122;24.746;2023-07-31T02:32:10;98909.06;;;24.46;57.93
2675;BME280;1347;42.122;24.746;2023-07-31T02:34:37;98899.25;;;24.50;59.39
2675;BME280;1347;42.122;24.746;2023-07-31T02:37:06;98898.88;;;24.57;59.46
2675;BME280;1347;42.122;24.746;2023-07-31T02:39:33;98892.19;;;24.55;61.91
2675;BME280;1347;42.122;24.746;2023-07-31T02:42:00;98896.84;;;24.58;63.24
2675;BME280;1347;42.122;24.746;2023-07-31T02:44:27;98891.53;;;24.60;63.99
2675;BME280;1347;42.122;24.746;2023-07-31T02:46:54;98899.84;;;24.69;64.24
2675;BME280;1347;42.122;24.746;2023-07-31T02:49:20;98896.59;;;24.71;64.84
2675;BME280;1347;42.122;24.746;2023-07-31T02:51:47;98895.13;;;24.75;65.49
2675;BME280;1347;42.122;24.746;2023-07-31T02:54:15;98894.06;;;24.73;66.54
2675;BME280;1347;42.122;24.746;2023-07-31T02:56:42;98887.41;;;24.70;67.79
2675;BME280;1347;42.122;24.746;2023-07-31T02:59:09;98885.84;;;24.69;67.48
2675;BME280;1347;42.122;24.746;2023-07-31T03:01:36;98898.13;;;24.72;67.96
2675;BME280;1347;42.122;24.746;2023-07-31T03:04:04;98889.25;;;24.73;67.88
2675;BME280;1347;42.122;24.746;2023-07-31T03:06:31;98887.78;;;24.78;67.96
2675;BME280;1347;42.122;24.746;2023-07-31T03:08:57;98888.09;;;24.80;67.94
2675;BME280;1347;42.122;24.746;2023-07-31T03:11:26;98896.03;;;24.81;67.71
2675;BME280;1347;42.122;24.746;2023-07-31T03:13:53;98887.97;;;24.74;68.75
2675;BME280;1347;42.122;24.746;2023-07-31T03:16:19;98890.38;;;24.67;71.78
2675;BME280;1347;42.122;24.746;2023-07-31T03:18:46;98896.13;;;24.48;77.14
2675;BME280;1347;42.122;24.746;2023-07-31T03:21:14;98897.38;;;24.47;80.78
2675;BME280;1347;42.122;24.746;2023-07-31T03:23:41;98902.22;;;24.47;84.71
2675;BME280;1347;42.122;24.746;2023-07-31T03:26:09;98895.50;;;24.30;88.50
2675;BME280;1347;42.122;24.746;2023-07-31T03:28:37;98905.53;;;24.22;89.78
2675;BME280;1347;42.122;24.746;2023-07-31T03:31:04;98903.50;;;24.13;92.50
2675;BME280;1347;42.122;24.746;2023-07-31T03:33:31;98907.34;;;24.01;95.51
2675;BME280;1347;42.122;24.746;2023-07-31T03:35:58;98914.25;;;23.91;97.11
2675;BME280;1347;42.122;24.746;2023-07-31T03:38:25;98914.16;;;23.76;98.64
2675;BME280;1347;42.122;24.746;2023-07-31T03:40:51;98923.97;;;23.71;100.00
2675;BME280;1347;42.122;24.746;2023-07-31T03:43:18;98924.13;;;23.68;100.00
2675;BME280;1347;42.122;24.746;2023-07-31T03:45:46;98940.03;;;23.53;100.00
2675;BME280;1347;42.122;24.746;2023-07-31T03:48:14;98951.59;;;23.27;100.00
2675;BME280;1347;42.122;24.746;2023-07-31T03:50:41;98957.38;;;23.05;100.00
2675;BME280;1347;42.122;24.746;2023-07-31T03:53:08;98967.47;;;22.85;100.00
2675;BME280;1347;42.122;24.746;2023-07-31T03:55:34;98963.41;;;22.67;100.00
2675;BME280;1347;42.122;24.746;2023-07-31T03:58:01;98965.09;;;22.47;100.00
2675;BME280;1347;42.122;24.746;2023-07-31T04:00:28;98967.38;;;22.30;100.00
2675;BME280;1347;42.122;24.746;2023-07-31T04:02:56;98968.31;;;22.27;100.00
2675;BME280;1347;42.122;24.746;2023-07-31T04:05:23;98970.78;;;22.25;100.00
2675;BME280;1347;42.122;24.746;2023-07-31T04:07:50;98975.72;;;22.21;100.00
2675;BME280;1347;42.122;24.746;2023-07-31T04:10:17;98974.16;;;22.11;100.00
2675;BME280;1347;42.122;24.746;2023-07-31T04:12:44;98975.22;;;22.04;100.00
2675;BME280;1347;42.122;24.746;2023-07-31T04:15:11;98968.75;;;22.16;100.00
2675;BME280;1347;42.122;24.746;2023-07-31T04:17:38;98969.78;;;22.00;100.00
2675;BME280;1347;42.122;24.746;2023-07-31T04:20:07;98980.97;;;22.10;100.00
2675;BME280;1347;42.122;24.746;2023-07-31T04:22:34;98980.53;;;22.20;100.00
2675;BME280;1347;42.122;24.746;2023-07-31T04:25:01;98985.34;;;22.20;100.00
2675;BME280;1347;42.122;24.746;2023-07-31T04:27:28;98982.56;;;22.20;100.00
2675;BME280;1347;42.122;24.746;2023-07-31T04:29:54;98990.97;;;22.29;100.00
2675;BME280;1347;42.122;24.746;2023-07-31T04:32:21;98991.72;;;22.29;100.00
2675;BME280;1347;42.122;24.746;2023-07-31T04:34:48;98991.72;;;22.29;100.00
2675;BME280;1347;42.122;24.746;2023-07-31T04:37:16;98988.81;;;22.33;100.00
2675;BME280;1347;42.122;24.746;2023-07-31T04:39:43;98993.78;;;22.29;100.00
2675;BME280;1347;42.122;24.746;2023-07-31T04:42:10;98987.72;;;22.39;100.00
2675;BME280;1347;42.122;24.746;2023-07-31T04:44:37;98993.34;;;22.49;100.00
2675;BME280;1347;42.122;24.746;2023-07-31T04:47:04;98985.13;;;22.54;100.00
2675;BME280;1347;42.122;24.746;2023-07-31T04:49:31;98998.16;;;22.57;100.00
2675;BME280;1347;42.122;24.746;2023-07-31T04:51:58;98986.69;;;22.55;100.00
2675;BME280;1347;42.122;24.746;2023-07-31T04:54:26;98999.84;;;22.46;100.00
2675;BME280;1347;42.122;24.746;2023-07-31T04:56:53;98998.94;;;22.58;100.00
2675;BME280;1347;42.122;24.746;2023-07-31T04:59:20;98987.00;;;22.66;100.00
2675;BME280;1347;42.122;24.746;2023-07-31T05:01:47;98992.00;;;22.81;100.00
2675;BME280;1347;42.122;24.746;2023-07-31T05:04:15;98987.34;;;22.96;100.00
2675;BME280;1347;42.122;24.746;2023-07-31T05:06:42;98988.13;;;23.05;100.00
2675;BME280;1347;42.122;24.746;2023-07-31T05:09:08;98988.88;;;23.15;100.00
2675;BME280;1347;42.122;24.746;2023-07-31T05:11:37;98987.50;;;23.20;100.00
2675;BME280;1347;42.122;24.746;2023-07-31T05:14:05;98992.31;;;23.01;100.00
2675;BME280;1347;42.122;24.746;2023-07-31T05:16:33;98991.06;;;23.20;100.00
2675;BME280;1347;42.122;24.746;2023-07-31T05:18:59;98986.53;;;23.32;100.00
2675;BME280;1347;42.122;24.746;2023-07-31T05:21:26;98977.50;;;23.37;100.00
2675;BME280;1347;42.122;24.746;2023-07-31T05:23:53;98987.28;;;23.41;100.00
2675;BME280;1347;42.122;24.746;2023-07-31T05:26:20;98990.25;;;23.38;100.00
2675;BME280;1347;42.122;24.746;2023-07-31T05:28:49;98986.97;;;23.48;100.00
2675;BME280;1347;42.122;24.746;2023-07-31T05:31:16;98993.03;;;23.47;100.00
2675;BME280;1347;42.122;24.746;2023-07-31T05:33:42;98993.97;;;23.44;100.00
2675;BME280;1347;42.122;24.746;2023-07-31T05:36:09;98999.28;;;23.51;100.00
2675;BME280;1347;42.122;24.746;2023-07-31T05:38:36;99005.63;;;23.52;100.00
2675;BME280;1347;42.122;24.746;2023-07-31T05:41:03;99004.38;;;23.43;100.00
2675;BME280;1347;42.122;24.746;2023-07-31T05:43:30;99013.22;;;23.42;100.00
2675;BME280;1347;42.122;24.746;2023-07-31T05:45:58;99012.47;;;23.41;100.00
2675;BME280;1347;42.122;24.746;2023-07-31T05:48:25;99015.28;;;23.51;100.00
2675;BME280;1347;42.122;24.746;2023-07-31T05:50:52;99006.09;;;23.59;100.00
2675;BME280;1347;42.122;24.746;2023-07-31T05:53:19;99004.81;;;23.69;100.00
2675;BME280;1347;42.122;24.746;2023-07-31T05:55:46;99013.63;;;23.86;100.00
2675;BME280;1347;42.122;24.746;2023-07-31T05:58:13;99021.53;;;23.97;100.00
2675;BME280;1347;42.122;24.746;2023-07-31T06:00:40;99011.84;;;24.07;100.00
2675;BME280;1347;42.122;24.746;2023-07-31T06:03:12;99003.56;;;24.12;100.00
2675;BME280;1347;42.122;24.746;2023-07-31T06:05:39;98999.47;;;24.23;100.00
2675;BME280;1347;42.122;24.746;2023-07-31T06:08:06;98997.00;;;24.48;100.00
2675;BME280;1347;42.122;24.746;2023-07-31T06:10:33;99005.47;;;24.63;99.73
2675;BME280;1347;42.122;24.746;2023-07-31T06:13:00;99001.84;;;24.72;95.42
2675;BME280;1347;42.122;24.746;2023-07-31T06:15:27;99005.72;;;24.98;96.58
2675;BME280;1347;42.122;24.746;2023-07-31T06:17:53;99002.94;;;25.13;91.94
2675;BME280;1347;42.122;24.746;2023-07-31T06:20:22;99004.63;;;25.34;92.78
2675;BME280;1347;42.122;24.746;2023-07-31T06:22:49;99008.28;;;25.40;89.30
2675;BME280;1347;42.122;24.746;2023-07-31T06:25:16;99009.56;;;25.54;86.58
2675;BME280;1347;42.122;24.746;2023-07-31T06:27:43;99003.97;;;25.69;87.93
2675;BME280;1347;42.122;24.746;2023-07-31T06:30:11;99010.84;;;25.82;87.07
2675;BME280;1347;42.122;24.746;2023-07-31T06:32:38;99013.13;;;25.98;84.84
2675;BME280;1347;42.122;24.746;2023-07-31T06:35:06;99007.56;;;26.19;83.98
2675;BME280;1347;42.122;24.746;2023-07-31T06:37:35;99008.69;;;26.42;83.48
2675;BME280;1347;42.122;24.746;2023-07-31T06:40:02;99011.38;;;26.51;82.69
2675;BME280;1347;42.122;24.746;2023-07-31T06:42:30;99008.91;;;26.58;81.87
2675;BME280;1347;42.122;24.746;2023-07-31T06:44:57;99001.63;;;26.87;83.03
2675;BME280;1347;42.122;24.746;2023-07-31T06:47:24;99000.34;;;27.08;81.05
2675;BME280;1347;42.122;24.746;2023-07-31T06:49:51;99011.91;;;27.36;80.51
2675;BME280;1347;42.122;24.746;2023-07-31T06:52:18;99014.88;;;27.53;78.51
2675;BME280;1347;42.122;24.746;2023-07-31T06:55:00;99004.41;;;27.53;77.19
2675;BME280;1347;42.122;24.746;2023-07-31T06:57:28;99007.53;;;27.55;77.40
2675;BME280;1347;42.122;24.746;2023-07-31T06:59:55;99012.09;;;27.78;77.69
2675;BME280;1347;42.122;24.746;2023-07-31T07:02:21;99004.84;;;28.03;76.33
2675;BME280;1347;42.122;24.746;2023-07-31T07:04:50;99009.66;;;28.29;75.52
2675;BME280;1347;42.122;24.746;2023-07-31T07:07:18;99007.50;;;28.61;74.87
2675;BME280;1347;42.122;24.746;2023-07-31T07:09:44;99007.13;;;28.79;71.96
2675;BME280;1347;42.122;24.746;2023-07-31T07:12:13;99014.63;;;28.87;73.46
2675;BME280;1347;42.122;24.746;2023-07-31T07:14:40;99006.75;;;29.25;72.67
2675;BME280;1347;42.122;24.746;2023-07-31T07:17:06;99012.50;;;29.47;71.61
2675;BME280;1347;42.122;24.746;2023-07-31T07:19:33;98997.34;;;29.56;70.07
2675;BME280;1347;42.122;24.746;2023-07-31T07:22:00;99019.16;;;29.39;70.45
2675;BME280;1347;42.122;24.746;2023-07-31T07:24:28;99011.47;;;29.56;70.13
2675;BME280;1347;42.122;24.746;2023-07-31T07:26:54;99001.69;;;29.46;69.48
2675;BME280;1347;42.122;24.746;2023-07-31T07:29:23;99012.53;;;29.70;69.70
2675;BME280;1347;42.122;24.746;2023-07-31T07:31:50;99004.81;;;29.87;68.99
2675;BME280;1347;42.122;24.746;2023-07-31T07:34:16;99010.47;;;30.09;66.25
2675;BME280;1347;42.122;24.746;2023-07-31T07:36:43;99010.47;;;30.15;65.51
2675;BME280;1347;42.122;24.746;2023-07-31T07:39:11;99012.22;;;30.40;65.14
2675;BME280;1347;42.122;24.746;2023-07-31T07:41:37;99004.66;;;30.82;65.32
2675;BME280;1347;42.122;24.746;2023-07-31T07:44:04;99011.28;;;30.95;64.57
2675;BME280;1347;42.122;24.746;2023-07-31T07:46:33;99009.81;;;30.78;63.67
2675;BME280;1347;42.122;24.746;2023-07-31T07:49:00;99013.56;;;31.02;63.79
2675;BME280;1347;42.122;24.746;2023-07-31T07:51:26;99009.69;;;31.05;63.83
2675;BME280;1347;42.122;24.746;2023-07-31T07:53:55;99006.56;;;31.20;62.75
2675;BME280;1347;42.122;24.746;2023-07-31T07:56:23;99012.75;;;31.19;62.22
2675;BME280;1347;42.122;24.746;2023-07-31T07:58:50;99000.72;;;31.48;61.70
2675;BME280;1347;42.122;24.746;2023-07-31T08:01:17;99009.16;;;31.95;60.84
2675;BME280;1347;42.122;24.746;2023-07-31T08:03:46;99016.38;;;32.26;58.89
2675;BME280;1347;42.122;24.746;2023-07-31T08:06:14;99004.94;;;32.01;57.36
2675;BME280;1347;42.122;24.746;2023-07-31T08:08:41;99006.44;;;31.78;58.82
2675;BME280;1347;42.122;24.746;2023-07-31T08:11:08;99000.56;;;31.70;58.85
2675;BME280;1347;42.122;24.746;2023-07-31T08:13:34;99001.34;;;31.30;58.78
2675;BME280;1347;42.122;24.746;2023-07-31T08:16:02;98991.66;;;31.55;59.97
2675;BME280;1347;42.122;24.746;2023-07-31T08:18:30;98992.50;;;32.10;58.29
2675;BME280;1347;42.122;24.746;2023-07-31T08:20:59;98995.84;;;32.38;57.31
2675;BME280;1347;42.122;24.746;2023-07-31T08:23:26;98983.63;;;32.68;56.76
2675;BME280;1347;42.122;24.746;2023-07-31T08:25:52;98990.25;;;32.03;56.59
2675;BME280;1347;42.122;24.746;2023-07-31T08:28:19;98984.72;;;31.51;58.50
2675;BME280;1347;42.122;24.746;2023-07-31T08:30:46;98983.38;;;31.63;58.38
2675;BME280;1347;42.122;24.746;2023-07-31T08:33:13;98986.16;;;31.68;58.40
2675;BME280;1347;42.122;24.746;2023-07-31T08:35:40;98992.84;;;31.71;57.83
2675;BME280;1347;42.122;24.746;2023-07-31T08:38:08;98987.38;;;31.37;57.70
2675;BME280;1347;42.122;24.746;2023-07-31T08:40:36;98988.53;;;31.18;57.77
2675;BME280;1347;42.122;24.746;2023-07-31T08:43:04;98994.66;;;31.68;56.11
2675;BME280;1347;42.122;24.746;2023-07-31T08:45:31;98992.69;;;32.17;55.28
2675;BME280;1347;42.122;24.746;2023-07-31T08:47:59;99003.66;;;32.57;52.97
2675;BME280;1347;42.122;24.746;2023-07-31T08:50:26;98999.50;;;32.58;52.77
2675;BME280;1347;42.122;24.746;2023-07-31T08:52:53;98990.22;;;32.81;51.68
2675;BME280;1347;42.122;24.746;2023-07-31T08:55:21;99002.09;;;32.99;51.25
2675;BME280;1347;42.122;24.746;2023-07-31T08:57:51;98997.69;;;33.41;50.62
2675;BME280;1347;42.122;24.746;2023-07-31T09:00:19;98988.94;;;33.71;50.45
2675;BME280;1347;42.122;24.746;2023-07-31T09:02:56;98993.84;;;33.38;50.49
2675;BME280;1347;42.122;24.746;2023-07-31T09:05:26;98988.91;;;33.57;49.18
2675;BME280;1347;42.122;24.746;2023-07-31T09:07:55;98977.88;;;33.86;49.26
2675;BME280;1347;42.122;24.746;2023-07-31T09:10:24;98978.19;;;34.54;47.56
2675;BME280;1347;42.122;24.746;2023-07-31T09:12:52;98978.81;;;34.73;45.79
2675;BME280;1347;42.122;24.746;2023-07-31T09:15:19;98988.66;;;34.98;45.63
2675;BME280;1347;42.122;24.746;2023-07-31T09:17:47;98985.41;;;34.81;46.15
2675;BME280;1347;42.122;24.746;2023-07-31T09:20:15;98986.50;;;34.78;45.18
2675;BME280;1347;42.122;24.746;2023-07-31T09:22:43;98986.38;;;34.44;45.86
2675;BME280;1347;42.122;24.746;2023-07-31T09:25:16;98991.16;;;35.02;44.38
2675;BME280;1347;42.122;24.746;2023-07-31T09:27:49;98972.88;;;35.11;42.89
2675;BME280;1347;42.122;24.746;2023-07-31T09:30:16;98973.34;;;35.35;43.37
2675;BME280;1347;42.122;24.746;2023-07-31T09:32:44;98972.59;;;34.75;44.10
2675;BME280;1347;42.122;24.746;2023-07-31T09:35:19;98972.38;;;34.86;44.01
2675;BME280;1347;42.122;24.746;2023-07-31T09:37:51;98962.19;;;35.24;42.98
2675;BME280;1347;42.122;24.746;2023-07-31T09:40:31;98971.91;;;35.42;42.44
2675;BME280;1347;42.122;24.746;2023-07-31T09:43:03;98964.78;;;35.90;41.34
2675;BME280;1347;42.122;24.746;2023-07-31T09:45:35;98968.91;;;36.67;40.35
2675;BME280;1347;42.122;24.746;2023-07-31T09:48:03;98956.63;;;37.23;39.47
2675;BME280;1347;42.122;24.746;2023-07-31T09:50:36;98957.75;;;37.20;39.77
2675;BME280;1347;42.122;24.746;2023-07-31T09:53:03;98961.13;;;37.11;39.85
2675;BME280;1347;42.122;24.746;2023-07-31T09:55:30;98969.56;;;37.16;39.47
2675;BME280;1347;42.122;24.746;2023-07-31T09:57:59;98976.91;;;37.55;38.77
2675;BME280;1347;42.122;24.746;2023-07-31T10:00:30;98961.09;;;37.70;38.63
2675;BME280;1347;42.122;24.746;2023-07-31T10:02:58;98973.91;;;37.76;37.19
2675;BME280;1347;42.122;24.746;2023-07-31T10:05:30;98970.44;;;38.01;37.37
2675;BME280;1347;42.122;24.746;2023-07-31T10:07:58;98961.81;;;37.47;38.37
2675;BME280;1347;42.122;24.746;2023-07-31T10:10:25;98959.09;;;37.19;38.45
2675;BME280;1347;42.122;24.746;2023-07-31T10:12:56;98953.22;;;36.89;39.39
2675;BME280;1347;42.122;24.746;2023-07-31T10:15:25;98955.72;;;37.43;38.39
2675;BME280;1347;42.122;24.746;2023-07-31T10:17:54;98946.59;;;37.90;37.49
2675;BME280;1347;42.122;24.746;2023-07-31T10:20:22;98943.63;;;38.74;35.94
2675;BME280;1347;42.122;24.746;2023-07-31T10:22:49;98936.91;;;38.87;36.32
2675;BME280;1347;42.122;24.746;2023-07-31T10:25:18;98945.63;;;39.36;36.10
2675;BME280;1347;42.122;24.746;2023-07-31T10:27:47;98939.63;;;39.74;35.04
2675;BME280;1347;42.122;24.746;2023-07-31T10:30:15;98922.38;;;39.25;35.68
2675;BME280;1347;42.122;24.746;2023-07-31T10:32:45;98925.53;;;39.69;34.94
2675;BME280;1347;42.122;24.746;2023-07-31T10:35:14;98929.25;;;39.54;34.29
2675;BME280;1347;42.122;24.746;2023-07-31T10:37:42;98922.19;;;39.23;35.55
2675;BME280;1347;42.122;24.746;2023-07-31T10:40:11;98913.69;;;39.40;35.35
2675;BME280;1347;42.122;24.746;2023-07-31T10:42:46;98909.13;;;39.62;34.06
2675;BME280;1347;42.122;24.746;2023-07-31T10:45:24;98909.91;;;39.87;34.72
2675;BME280;1347;42.122;24.746;2023-07-31T10:47:58;98899.47;;;40.34;34.05
2675;BME280;1347;42.122;24.746;2023-07-31T10:50:26;98894.63;;;40.02;34.05
2675;BME280;1347;42.122;24.746;2023-07-31T10:52:55;98898.97;;;39.36;35.21
2675;BME280;1347;42.122;24.746;2023-07-31T10:55:26;98889.88;;;39.22;34.80
2675;BME280;1347;42.122;24.746;2023-07-31T10:57:54;98886.81;;;39.78;34.34
2675;BME280;1347;42.122;24.746;2023-07-31T11:00:24;98883.06;;;40.78;34.26
2675;BME280;1347;42.122;24.746;2023-07-31T11:03:01;98884.38;;;39.91;33.87
2675;BME280;1347;42.122;24.746;2023-07-31T11:05:46;98880.75;;;39.49;34.38
2675;BME280;1347;42.122;24.746;2023-07-31T11:08:15;98883.63;;;38.76;35.07
2675;BME280;1347;42.122;24.746;2023-07-31T11:10:42;98883.72;;;38.53;36.23
2675;BME280;1347;42.122;24.746;2023-07-31T11:13:10;98880.81;;;39.33;35.62
2675;BME280;1347;42.122;24.746;2023-07-31T11:15:38;98876.06;;;40.20;32.96
2675;BME280;1347;42.122;24.746;2023-07-31T11:18:06;98886.09;;;40.63;32.71
2675;BME280;1347;42.122;24.746;2023-07-31T11:20:36;98891.97;;;41.27;32.19
2675;BME280;1347;42.122;24.746;2023-07-31T11:23:06;98895.22;;;40.87;32.01
2675;BME280;1347;42.122;24.746;2023-07-31T11:25:34;98900.63;;;40.83;34.63
2675;BME280;1347;42.122;24.746;2023-07-31T11:28:05;98893.72;;;39.50;36.64
2675;BME280;1347;42.122;24.746;2023-07-31T11:30:33;98881.03;;;38.48;39.49
2675;BME280;1347;42.122;24.746;2023-07-31T11:33:01;98892.81;;;37.43;40.77
2675;BME280;1347;42.122;24.746;2023-07-31T11:35:32;98879.69;;;36.81;41.83
2675;BME280;1347;42.122;24.746;2023-07-31T11:37:59;98873.09;;;36.58;42.31
2675;BME280;1347;42.122;24.746;2023-07-31T11:40:26;98880.69;;;36.48;42.38
2675;BME280;1347;42.122;24.746;2023-07-31T11:42:56;98883.09;;;36.08;42.79
2675;BME280;1347;42.122;24.746;2023-07-31T11:45:25;98868.81;;;35.30;43.45
2675;BME280;1347;42.122;24.746;2023-07-31T11:47:54;98873.00;;;34.82;45.09
2675;BME280;1347;42.122;24.746;2023-07-31T11:50:22;98867.38;;;34.56;45.76
2675;BME280;1347;42.122;24.746;2023-07-31T11:52:53;98858.63;;;34.41;46.04
2675;BME280;1347;42.122;24.746;2023-07-31T11:55:22;98867.16;;;34.01;47.18
2675;BME280;1347;42.122;24.746;2023-07-31T11:57:50;98861.03;;;34.50;46.34
2675;BME280;1347;42.122;24.746;2023-07-31T12:00:18;98871.22;;;34.92;45.61
2675;BME280;1347;42.122;24.746;2023-07-31T12:02:46;98866.16;;;34.51;44.17
2675;BME280;1347;42.122;24.746;2023-07-31T12:05:13;98873.31;;;34.05;44.86
2675;BME280;1347;42.122;24.746;2023-07-31T12:07:44;98865.25;;;33.64;46.49
2675;BME280;1347;42.122;24.746;2023-07-31T12:10:22;98865.44;;;33.98;47.61
2675;BME280;1347;42.122;24.746;2023-07-31T12:12:56;98856.06;;;34.63;46.21
2675;BME280;1347;42.122;24.746;2023-07-31T12:15:35;98853.22;;;35.52;45.25
2675;BME280;1347;42.122;24.746;2023-07-31T12:18:07;98857.19;;;36.34;43.81
2675;BME280;1347;42.122;24.746;2023-07-31T12:20:35;98860.13;;;37.01;41.26
2675;BME280;1347;42.122;24.746;2023-07-31T12:23:02;98848.78;;;37.62;40.77
2675;BME280;1347;42.122;24.746;2023-07-31T12:25:32;98845.69;;;37.59;40.12
2675;BME280;1347;42.122;24.746;2023-07-31T12:28:04;98849.34;;;37.75;40.90
2675;BME280;1347;42.122;24.746;2023-07-31T12:30:33;98843.41;;;38.51;39.35
2675;BME280;1347;42.122;24.746;2023-07-31T12:33:04;98839.50;;;39.36;37.68
2675;BME280;1347;42.122;24.746;2023-07-31T12:35:36;98840.13;;;39.77;36.92
2675;BME280;1347;42.122;24.746;2023-07-31T12:38:04;98842.28;;;40.45;35.19
2675;BME280;1347;42.122;24.746;2023-07-31T12:40:32;98841.66;;;40.13;35.47
2675;BME280;1347;42.122;24.746;2023-07-31T12:43:01;98846.25;;;39.98;35.55
2675;BME280;1347;42.122;24.746;2023-07-31T12:45:29;98840.00;;;40.27;34.04
2675;BME280;1347;42.122;24.746;2023-07-31T12:47:56;98839.31;;;40.19;31.94
2675;BME280;1347;42.122;24.746;2023-07-31T12:50:23;98844.63;;;40.57;30.57
2675;BME280;1347;42.122;24.746;2023-07-31T12:52:51;98838.31;;;39.89;31.45
2675;BME280;1347;42.122;24.746;2023-07-31T12:55:18;98839.91;;;39.08;32.40
2675;BME280;1347;42.122;24.746;2023-07-31T12:57:46;98834.91;;;38.36;32.99
2675;BME280;1347;42.122;24.746;2023-07-31T13:00:13;98836.53;;;37.46;34.07
2675;BME280;1347;42.122;24.746;2023-07-31T13:02:40;98829.72;;;36.67;39.71
2675;BME280;1347;42.122;24.746;2023-07-31T13:05:08;98822.84;;;35.83;42.98
2675;BME280;1347;42.122;24.746;2023-07-31T13:07:35;98815.56;;;35.74;42.92
2675;BME280;1347;42.122;24.746;2023-07-31T13:10:02;98812.34;;;35.29;44.26
2675;BME280;1347;42.122;24.746;2023-07-31T13:12:28;98814.75;;;34.83;45.81
2675;BME280;1347;42.122;24.746;2023-07-31T13:14:57;98811.59;;;34.13;46.96
2675;BME280;1347;42.122;24.746;2023-07-31T13:17:24;98813.44;;;33.58;48.24